PWSweather.com
Personal Weather Stations
Station Observations
VPOKROGLO
Kal Nad Kanalom, PrimorskaSI

Kal Nad KanalomPrimorskaSI

Lat: 46.072, Lon: 13.734

Elevation: 2526

Station Type: WS-2355

http://www.okroglovreme.com

Latest ConditionsUpdated 11:00:01 PM GMT+01:01 Wednesday, Jan 28, 2015
Currently Today's Max Today's Min Today's Average
Temperature 28.9°F-1.7°C 42.4°F5.8°C 28.9°F-1.7°C 33.3°F0.7°C
Dew Point 20.4°F-6.4°C 25.1°F-3.8°C 17.1°F-8.3°C 20.1°F-6.6°C
Winds Calm Calm 2.5 mph S4.0 kmh S - 0.7 mph 1.1 kmh
Wind Gusts -- 10.7 mph17.2 kmh - -
Humidity 70% 70% 49% 58%
Pressure 29.81 in1009.5 mb 29.99 in1015.6 mb 29.81 in1009.5 mb -
Hour Temp Dew Point Humidity Winds Wind Gusts Pressure Precip Precip Rate Daily Precip Total
11:00 PM 28.9°F-1.7°C 20.4°F-6.4°C 70% Calm Calm -- 29.81 in1009.5 mb 0.00 in0.0 mm 0.00 in/hr0.0 mm/hr 0.00 in0.0 mm
10:45 PM 28.9°F-1.7°C 20.4°F-6.4°C 70% Calm Calm -- 29.82 in1009.8 mb 0.00 in0.0 mm 0.00 in/hr0.0 mm/hr 0.00 in0.0 mm
10:30 PM 29.5°F-1.4°C 20.6°F-6.3°C 69% Calm Calm -- 29.82 in1009.8 mb 0.00 in0.0 mm 0.00 in/hr0.0 mm/hr 0.00 in0.0 mm
10:15 PM 29.7°F-1.3°C 20.7°F-6.3°C 69% 0.7 mph NNE1.1 kmh NNE 2.7 mph4.3 kmh 29.82 in1009.8 mb 0.00 in0.0 mm 0.00 in/hr0.0 mm/hr 0.00 in0.0 mm
10:00 PM 29.1°F-1.6°C 20.2°F-6.6°C 69% 0.2 mph NNE0.3 kmh NNE 1.8 mph2.9 kmh 29.83 in1010.2 mb 0.00 in0.0 mm 0.00 in/hr0.0 mm/hr 0.00 in0.0 mm
09:45 PM 29.5°F-1.4°C 20.2°F-6.6°C 68% Calm Calm 1.3 mph2.1 kmh 29.84 in1010.5 mb 0.00 in0.0 mm 0.00 in/hr0.0 mm/hr 0.00 in0.0 mm
09:30 PM 30.0°F-1.1°C 20.7°F-6.3°C 68% 0.4 mph SW0.6 kmh SW 3.6 mph5.8 kmh 29.84 in1010.5 mb 0.00 in0.0 mm 0.00 in/hr0.0 mm/hr 0.00 in0.0 mm
09:15 PM 30.0°F-1.1°C 20.4°F-6.4°C 67% 0.4 mph SW0.6 kmh SW 4.0 mph6.4 kmh 29.84 in1010.5 mb 0.00 in0.0 mm 0.00 in/hr0.0 mm/hr 0.00 in0.0 mm
09:00 PM 30.0°F-1.1°C 20.4°F-6.4°C 67% 0.1 mph W0.2 kmh W 2.2 mph3.5 kmh 29.85 in1010.8 mb 0.00 in0.0 mm 0.00 in/hr0.0 mm/hr 0.00 in0.0 mm
08:45 PM 30.2°F-1.0°C 20.2°F-6.6°C 66% 0.4 mph NW0.6 kmh NW 4.0 mph6.4 kmh 29.86 in1011.2 mb 0.00 in0.0 mm 0.00 in/hr0.0 mm/hr 0.00 in0.0 mm
08:30 PM 30.4°F-0.9°C 20.4°F-6.4°C 66% 0.4 mph W0.6 kmh W 2.5 mph4.0 kmh 29.87 in1011.5 mb 0.00 in0.0 mm 0.00 in/hr0.0 mm/hr 0.00 in0.0 mm
08:15 PM 30.4°F-0.9°C 20.0°F-6.7°C 65% 0.8 mph W1.3 kmh W 2.9 mph4.7 kmh 29.87 in1011.5 mb 0.00 in0.0 mm 0.00 in/hr0.0 mm/hr 0.00 in0.0 mm
08:00 PM 30.7°F-0.7°C 20.4°F-6.4°C 65% 0.5 mph NW0.8 kmh NW 2.7 mph4.3 kmh 29.88 in1011.9 mb 0.00 in0.0 mm 0.00 in/hr0.0 mm/hr 0.00 in0.0 mm
07:45 PM 30.7°F-0.7°C 20.0°F-6.7°C 64% 0.3 mph NW0.5 kmh NW 2.5 mph4.0 kmh 29.88 in1011.9 mb 0.00 in0.0 mm 0.00 in/hr0.0 mm/hr 0.00 in0.0 mm
07:30 PM 30.9°F-0.6°C 20.2°F-6.6°C 64% 0.8 mph NNW1.3 kmh NNW 3.8 mph6.1 kmh 29.89 in1012.2 mb 0.00 in0.0 mm 0.00 in/hr0.0 mm/hr 0.00 in0.0 mm
07:15 PM 31.1°F-0.5°C 20.0°F-6.7°C 63% 0.3 mph SW0.5 kmh SW 2.2 mph3.5 kmh 29.89 in1012.2 mb 0.00 in0.0 mm 0.00 in/hr0.0 mm/hr 0.00 in0.0 mm
07:00 PM 31.3°F-0.4°C 19.8°F-6.8°C 62% 0.2 mph SSW0.3 kmh SSW 2.5 mph4.0 kmh 29.89 in1012.2 mb 0.00 in0.0 mm 0.00 in/hr0.0 mm/hr 0.00 in0.0 mm
06:45 PM 31.3°F-0.4°C 19.8°F-6.8°C 62% 0.3 mph W0.5 kmh W 2.9 mph4.7 kmh 29.90 in1012.5 mb 0.00 in0.0 mm 0.00 in/hr0.0 mm/hr 0.00 in0.0 mm
06:30 PM 31.6°F-0.2°C 19.7°F-6.8°C 61% 0.2 mph WSW0.3 kmh WSW 2.5 mph4.0 kmh 29.90 in1012.5 mb 0.00 in0.0 mm 0.00 in/hr0.0 mm/hr 0.00 in0.0 mm
06:15 PM 31.8°F-0.1°C 19.9°F-6.7°C 61% 0.2 mph WSW0.3 kmh WSW 2.7 mph4.3 kmh 29.91 in1012.9 mb 0.00 in0.0 mm 0.00 in/hr0.0 mm/hr 0.00 in0.0 mm
06:00 PM 32.4°F0.2°C 20.0°F-6.7°C 60% 0.5 mph WNW0.8 kmh WNW 3.4 mph5.5 kmh 29.90 in1012.5 mb 0.00 in0.0 mm 0.00 in/hr0.0 mm/hr 0.00 in0.0 mm
05:45 PM 32.7°F0.4°C 20.0°F-6.7°C 59% 0.3 mph W0.5 kmh W 2.0 mph3.2 kmh 29.91 in1012.9 mb 0.00 in0.0 mm 0.00 in/hr0.0 mm/hr 0.00 in0.0 mm
05:30 PM 33.4°F0.8°C 20.6°F-6.3°C 59% 0.3 mph N0.5 kmh N 2.0 mph3.2 kmh 29.91 in1012.9 mb 0.00 in0.0 mm 0.00 in/hr0.0 mm/hr 0.00 in0.0 mm
05:15 PM 34.3°F1.3°C 20.7°F-6.3°C 57% 0.2 mph SW0.3 kmh SW 1.8 mph2.9 kmh 29.90 in1012.5 mb 0.00 in0.0 mm 0.00 in/hr0.0 mm/hr 0.00 in0.0 mm
05:00 PM 35.8°F2.1°C 21.6°F-5.8°C 56% 0.2 mph SE0.3 kmh SE 2.5 mph4.0 kmh 29.91 in1012.9 mb 0.00 in0.0 mm 0.00 in/hr0.0 mm/hr 0.00 in0.0 mm
04:45 PM 37.4°F3.0°C 22.3°F-5.4°C 54% 0.4 mph NW0.6 kmh NW 2.2 mph3.5 kmh 29.91 in1012.9 mb 0.00 in0.0 mm 0.00 in/hr0.0 mm/hr 0.00 in0.0 mm
04:30 PM 39.4°F4.1°C 23.7°F-4.6°C 53% 0.6 mph S1.0 kmh S 4.5 mph7.2 kmh 29.91 in1012.9 mb 0.00 in0.0 mm 0.00 in/hr0.0 mm/hr 0.00 in0.0 mm
04:15 PM 39.9°F4.4°C 23.7°F-4.6°C 52% 0.6 mph S1.0 kmh S 4.0 mph6.4 kmh 29.91 in1012.9 mb 0.00 in0.0 mm 0.00 in/hr0.0 mm/hr 0.00 in0.0 mm
04:00 PM 40.5°F4.7°C 23.7°F-4.6°C 51% 0.8 mph S1.3 kmh S 3.8 mph6.1 kmh 29.90 in1012.5 mb 0.00 in0.0 mm 0.00 in/hr0.0 mm/hr 0.00 in0.0 mm
03:45 PM 41.2°F5.1°C 23.9°F-4.5°C 50% 2.5 mph S4.0 kmh S 7.8 mph12.6 kmh 29.91 in1012.9 mb 0.00 in0.0 mm 0.00 in/hr0.0 mm/hr 0.00 in0.0 mm
03:30 PM 42.3°F5.7°C 24.4°F-4.2°C 49% 0.7 mph S1.1 kmh S 5.8 mph9.3 kmh 29.91 in1012.9 mb 0.00 in0.0 mm 0.00 in/hr0.0 mm/hr 0.00 in0.0 mm
03:15 PM 42.4°F5.8°C 24.6°F-4.1°C 49% 0.9 mph SSE1.4 kmh SSE 4.5 mph7.2 kmh 29.91 in1012.9 mb 0.00 in0.0 mm 0.00 in/hr0.0 mm/hr 0.00 in0.0 mm
03:00 PM 42.4°F5.8°C 25.1°F-3.8°C 50% 0.6 mph S1.0 kmh S 3.8 mph6.1 kmh 29.91 in1012.9 mb 0.00 in0.0 mm 0.00 in/hr0.0 mm/hr 0.00 in0.0 mm
02:45 PM 42.1°F5.6°C 24.8°F-4.0°C 50% 0.8 mph NE1.3 kmh NE 6.5 mph10.5 kmh 29.92 in1013.2 mb 0.00 in0.0 mm 0.00 in/hr0.0 mm/hr 0.00 in0.0 mm
02:30 PM 41.4°F5.2°C 24.1°F-4.4°C 50% 1.1 mph S1.8 kmh S 3.6 mph5.8 kmh 29.92 in1013.2 mb 0.00 in0.0 mm 0.00 in/hr0.0 mm/hr 0.00 in0.0 mm
02:15 PM 40.8°F4.9°C 24.1°F-4.4°C 51% 0.6 mph N1.0 kmh N 3.1 mph5.0 kmh 29.93 in1013.5 mb 0.00 in0.0 mm 0.00 in/hr0.0 mm/hr 0.00 in0.0 mm
02:00 PM 40.6°F4.8°C 23.9°F-4.5°C 51% 1.0 mph N1.6 kmh N 3.6 mph5.8 kmh 29.94 in1013.9 mb 0.00 in0.0 mm 0.00 in/hr0.0 mm/hr 0.00 in0.0 mm
01:45 PM 40.1°F4.5°C 23.9°F-4.5°C 52% 0.9 mph NNW1.4 kmh NNW 2.9 mph4.7 kmh 29.95 in1014.2 mb 0.00 in0.0 mm 0.00 in/hr0.0 mm/hr 0.00 in0.0 mm
01:30 PM 39.9°F4.4°C 23.7°F-4.6°C 52% 1.4 mph N2.3 kmh N 4.3 mph6.9 kmh 29.96 in1014.6 mb 0.00 in0.0 mm 0.00 in/hr0.0 mm/hr 0.00 in0.0 mm
01:15 PM 39.9°F4.4°C 24.2°F-4.3°C 53% 0.5 mph E0.8 kmh E 5.1 mph8.2 kmh 29.96 in1014.6 mb 0.00 in0.0 mm 0.00 in/hr0.0 mm/hr 0.00 in0.0 mm
01:00 PM 39.6°F4.2°C 23.8°F-4.6°C 53% 1.0 mph S1.6 kmh S 5.1 mph8.2 kmh 29.96 in1014.6 mb 0.00 in0.0 mm 0.00 in/hr0.0 mm/hr 0.00 in0.0 mm
12:45 PM 38.8°F3.8°C 23.6°F-4.7°C 54% 0.4 mph NNE0.6 kmh NNE 3.6 mph5.8 kmh 29.97 in1014.9 mb 0.00 in0.0 mm 0.00 in/hr0.0 mm/hr 0.00 in0.0 mm
12:30 PM 38.8°F3.8°C 23.6°F-4.7°C 54% 0.9 mph SSW1.4 kmh SSW 4.7 mph7.6 kmh 29.97 in1014.9 mb 0.00 in0.0 mm 0.00 in/hr0.0 mm/hr 0.00 in0.0 mm
12:15 PM 37.8°F3.2°C 22.6°F-5.2°C 54% 0.9 mph N1.4 kmh N 6.3 mph10.1 kmh 29.98 in1015.2 mb 0.00 in0.0 mm 0.00 in/hr0.0 mm/hr 0.00 in0.0 mm
12:00 PM 37.6°F3.1°C 22.4°F-5.3°C 54% 1.6 mph N2.6 kmh N 4.9 mph7.9 kmh 29.98 in1015.2 mb 0.00 in0.0 mm 0.00 in/hr0.0 mm/hr 0.00 in0.0 mm
11:45 AM 37.0°F2.8°C 21.9°F-5.6°C 54% 0.8 mph WNW1.3 kmh WNW 4.3 mph6.9 kmh 29.99 in1015.6 mb 0.00 in0.0 mm 0.00 in/hr0.0 mm/hr 0.00 in0.0 mm
11:30 AM 36.9°F2.7°C 21.7°F-5.7°C 54% 1.7 mph S2.7 kmh S 6.5 mph10.5 kmh 29.99 in1015.6 mb 0.00 in0.0 mm 0.00 in/hr0.0 mm/hr 0.00 in0.0 mm
11:15 AM 36.3°F2.4°C 21.2°F-6.0°C 54% 1.3 mph N2.1 kmh N 7.6 mph12.2 kmh 29.99 in1015.6 mb 0.00 in0.0 mm 0.00 in/hr0.0 mm/hr 0.00 in0.0 mm
11:00 AM 35.8°F2.1°C 20.7°F-6.3°C 54% 1.8 mph SSE2.9 kmh SSE 10.7 mph17.2 kmh 29.98 in1015.2 mb 0.00 in0.0 mm 0.00 in/hr0.0 mm/hr 0.00 in0.0 mm
10:45 AM 35.4°F1.9°C 20.8°F-6.2°C 55% 1.0 mph NE1.6 kmh NE 3.8 mph6.1 kmh 29.99 in1015.6 mb 0.00 in0.0 mm 0.00 in/hr0.0 mm/hr 0.00 in0.0 mm
10:30 AM 34.7°F1.5°C 20.2°F-6.6°C 55% 0.7 mph NE1.1 kmh NE 4.5 mph7.2 kmh 29.98 in1015.2 mb 0.00 in0.0 mm 0.00 in/hr0.0 mm/hr 0.00 in0.0 mm
10:15 AM 34.3°F1.3°C 19.8°F-6.8°C 55% 0.8 mph SSE1.3 kmh SSE 3.1 mph5.0 kmh 29.98 in1015.2 mb 0.00 in0.0 mm 0.00 in/hr0.0 mm/hr 0.00 in0.0 mm
10:00 AM 33.6°F0.9°C 19.6°F-6.9°C 56% 0.9 mph NNW1.4 kmh NNW 6.9 mph11.1 kmh 29.98 in1015.2 mb 0.00 in0.0 mm 0.00 in/hr0.0 mm/hr 0.00 in0.0 mm
09:45 AM 33.1°F0.6°C 19.1°F-7.2°C 56% 0.9 mph SW1.4 kmh SW 6.5 mph10.5 kmh 29.98 in1015.2 mb 0.00 in0.0 mm 0.00 in/hr0.0 mm/hr 0.00 in0.0 mm
09:30 AM 32.4°F0.2°C 18.8°F-7.3°C 57% 0.6 mph SW1.0 kmh SW 4.9 mph7.9 kmh 29.98 in1015.2 mb 0.00 in0.0 mm 0.00 in/hr0.0 mm/hr 0.00 in0.0 mm
09:15 AM 31.5°F-0.3°C 18.0°F-7.8°C 57% 0.6 mph SW1.0 kmh SW 4.5 mph7.2 kmh 29.98 in1015.2 mb 0.00 in0.0 mm 0.00 in/hr0.0 mm/hr 0.00 in0.0 mm
09:00 AM 30.9°F-0.6°C 17.5°F-8.1°C 57% 0.2 mph NW0.3 kmh NW 2.5 mph4.0 kmh 29.98 in1015.2 mb 0.00 in0.0 mm 0.00 in/hr0.0 mm/hr 0.00 in0.0 mm
08:45 AM 30.7°F-0.7°C 17.3°F-8.2°C 57% 0.1 mph SW0.2 kmh SW 1.8 mph2.9 kmh 29.97 in1014.9 mb 0.00 in0.0 mm 0.00 in/hr0.0 mm/hr 0.00 in0.0 mm
08:30 AM 30.7°F-0.7°C 17.3°F-8.2°C 57% 0.4 mph W0.6 kmh W 3.6 mph5.8 kmh 29.97 in1014.9 mb 0.00 in0.0 mm 0.00 in/hr0.0 mm/hr 0.00 in0.0 mm
08:15 AM 30.7°F-0.7°C 17.3°F-8.2°C 57% 0.7 mph WSW1.1 kmh WSW 3.1 mph5.0 kmh 29.97 in1014.9 mb 0.00 in0.0 mm 0.00 in/hr0.0 mm/hr 0.00 in0.0 mm
08:00 AM 30.7°F-0.7°C 17.3°F-8.2°C 57% 0.3 mph N0.5 kmh N 2.9 mph4.7 kmh 29.96 in1014.6 mb 0.00 in0.0 mm 0.00 in/hr0.0 mm/hr 0.00 in0.0 mm
07:45 AM 30.6°F-0.8°C 17.1°F-8.3°C 57% 0.8 mph SE1.3 kmh SE 5.4 mph8.7 kmh 29.96 in1014.6 mb 0.00 in0.0 mm 0.00 in/hr0.0 mm/hr 0.00 in0.0 mm
07:30 AM 30.6°F-0.8°C 17.5°F-8.1°C 58% 0.4 mph E0.6 kmh E 4.3 mph6.9 kmh 29.96 in1014.6 mb 0.00 in0.0 mm 0.00 in/hr0.0 mm/hr 0.00 in0.0 mm
07:15 AM 30.6°F-0.8°C 17.5°F-8.1°C 58% 0.5 mph NW0.8 kmh NW 2.5 mph4.0 kmh 29.96 in1014.6 mb 0.00 in0.0 mm 0.00 in/hr0.0 mm/hr 0.00 in0.0 mm
07:00 AM 30.4°F-0.9°C 17.4°F-8.1°C 58% 1.2 mph N1.9 kmh N 5.1 mph8.2 kmh 29.96 in1014.6 mb 0.00 in0.0 mm 0.00 in/hr0.0 mm/hr 0.00 in0.0 mm
06:45 AM 30.4°F-0.9°C 17.4°F-8.1°C 58% 0.8 mph S1.3 kmh S 3.8 mph6.1 kmh 29.96 in1014.6 mb 0.00 in0.0 mm 0.00 in/hr0.0 mm/hr 0.00 in0.0 mm
06:30 AM 30.4°F-0.9°C 17.4°F-8.1°C 58% 0.9 mph SW1.4 kmh SW 4.9 mph7.9 kmh 29.96 in1014.6 mb 0.00 in0.0 mm 0.00 in/hr0.0 mm/hr 0.00 in0.0 mm
06:15 AM 30.4°F-0.9°C 17.4°F-8.1°C 58% 1.3 mph SW2.1 kmh SW 4.3 mph6.9 kmh 29.96 in1014.6 mb 0.00 in0.0 mm 0.00 in/hr0.0 mm/hr 0.00 in0.0 mm
06:00 AM 30.6°F-0.8°C 17.5°F-8.1°C 58% 1.2 mph SW1.9 kmh SW 4.3 mph6.9 kmh 29.96 in1014.6 mb 0.00 in0.0 mm 0.00 in/hr0.0 mm/hr 0.00 in0.0 mm
05:45 AM 30.7°F-0.7°C 17.7°F-7.9°C 58% 1.0 mph WSW1.6 kmh WSW 3.8 mph6.1 kmh 29.96 in1014.6 mb 0.00 in0.0 mm 0.00 in/hr0.0 mm/hr 0.00 in0.0 mm
05:30 AM 30.6°F-0.8°C 17.5°F-8.1°C 58% 0.9 mph WSW1.4 kmh WSW 4.5 mph7.2 kmh 29.96 in1014.6 mb 0.00 in0.0 mm 0.00 in/hr0.0 mm/hr 0.00 in0.0 mm
05:15 AM 30.6°F-0.8°C 17.5°F-8.1°C 58% 1.1 mph SW1.8 kmh SW 3.6 mph5.8 kmh 29.96 in1014.6 mb 0.00 in0.0 mm 0.00 in/hr0.0 mm/hr 0.00 in0.0 mm
05:00 AM 30.7°F-0.7°C 17.7°F-7.9°C 58% 0.7 mph N1.1 kmh N 3.4 mph5.5 kmh 29.96 in1014.6 mb 0.00 in0.0 mm 0.00 in/hr0.0 mm/hr 0.00 in0.0 mm
04:45 AM 30.7°F-0.7°C 17.7°F-7.9°C 58% 0.8 mph WSW1.3 kmh WSW 4.7 mph7.6 kmh 29.96 in1014.6 mb 0.00 in0.0 mm 0.00 in/hr0.0 mm/hr 0.00 in0.0 mm
04:30 AM 30.7°F-0.7°C 18.1°F-7.7°C 59% 0.5 mph NNE0.8 kmh NNE 2.9 mph4.7 kmh 29.96 in1014.6 mb 0.00 in0.0 mm 0.00 in/hr0.0 mm/hr 0.00 in0.0 mm
04:15 AM 30.9°F-0.6°C 17.9°F-7.8°C 58% 0.3 mph W0.5 kmh W 2.5 mph4.0 kmh 29.96 in1014.6 mb 0.00 in0.0 mm 0.00 in/hr0.0 mm/hr 0.00 in0.0 mm
04:00 AM 31.1°F-0.5°C 18.0°F-7.8°C 58% 0.7 mph W1.1 kmh W 4.3 mph6.9 kmh 29.95 in1014.2 mb 0.00 in0.0 mm 0.00 in/hr0.0 mm/hr 0.00 in0.0 mm
03:45 AM 31.3°F-0.4°C 18.2°F-7.7°C 58% 0.6 mph W1.0 kmh W 2.9 mph4.7 kmh 29.95 in1014.2 mb 0.00 in0.0 mm 0.00 in/hr0.0 mm/hr 0.00 in0.0 mm
03:30 AM 31.1°F-0.5°C 18.0°F-7.8°C 58% 0.5 mph W0.8 kmh W 2.5 mph4.0 kmh 29.95 in1014.2 mb 0.00 in0.0 mm 0.00 in/hr0.0 mm/hr 0.00 in0.0 mm
03:15 AM 31.3°F-0.4°C 18.6°F-7.4°C 59% 0.5 mph SW0.8 kmh SW 2.7 mph4.3 kmh 29.96 in1014.6 mb 0.00 in0.0 mm 0.00 in/hr0.0 mm/hr 0.00 in0.0 mm
03:00 AM 31.6°F-0.2°C 18.9°F-7.3°C 59% 0.4 mph NNE0.6 kmh NNE 2.7 mph4.3 kmh 29.96 in1014.6 mb 0.00 in0.0 mm 0.00 in/hr0.0 mm/hr 0.00 in0.0 mm
02:45 AM 31.3°F-0.4°C 18.6°F-7.4°C 59% 0.5 mph SSW0.8 kmh SSW 3.6 mph5.8 kmh 29.96 in1014.6 mb 0.00 in0.0 mm 0.00 in/hr0.0 mm/hr 0.00 in0.0 mm
02:30 AM 31.5°F-0.3°C 18.8°F-7.3°C 59% 0.6 mph W1.0 kmh W 4.7 mph7.6 kmh 29.96 in1014.6 mb 0.00 in0.0 mm 0.00 in/hr0.0 mm/hr 0.00 in0.0 mm
02:15 AM 31.6°F-0.2°C 18.9°F-7.3°C 59% 0.8 mph NW1.3 kmh NW 2.9 mph4.7 kmh 29.96 in1014.6 mb 0.00 in0.0 mm 0.00 in/hr0.0 mm/hr 0.00 in0.0 mm
02:00 AM 31.3°F-0.4°C 19.0°F-7.2°C 60% 0.5 mph NNW0.8 kmh NNW 3.8 mph6.1 kmh 29.96 in1014.6 mb 0.00 in0.0 mm 0.00 in/hr0.0 mm/hr 0.00 in0.0 mm
01:45 AM 31.5°F-0.3°C 19.2°F-7.1°C 60% 0.4 mph SSW0.6 kmh SSW 4.3 mph6.9 kmh 29.96 in1014.6 mb 0.00 in0.0 mm 0.00 in/hr0.0 mm/hr 0.00 in0.0 mm
01:30 AM 31.3°F-0.4°C 19.0°F-7.2°C 60% 0.4 mph S0.6 kmh S 4.5 mph7.2 kmh 29.96 in1014.6 mb 0.00 in0.0 mm 0.00 in/hr0.0 mm/hr 0.00 in0.0 mm
01:15 AM 31.1°F-0.5°C 18.8°F-7.3°C 60% 1.1 mph S1.8 kmh S 4.5 mph7.2 kmh 29.95 in1014.2 mb 0.00 in0.0 mm 0.00 in/hr0.0 mm/hr 0.00 in0.0 mm
01:00 AM 30.7°F-0.7°C 18.9°F-7.3°C 61% 0.5 mph SSW0.8 kmh SSW 3.1 mph5.0 kmh 29.96 in1014.6 mb 0.00 in0.0 mm 0.00 in/hr0.0 mm/hr 0.00 in0.0 mm
12:45 AM 30.9°F-0.6°C 19.0°F-7.2°C 61% 0.2 mph NW0.3 kmh NW 2.2 mph3.5 kmh 29.96 in1014.6 mb 0.00 in0.0 mm 0.00 in/hr0.0 mm/hr 0.00 in0.0 mm
12:30 AM 30.9°F-0.6°C 18.7°F-7.4°C 60% 1.0 mph SSW1.6 kmh SSW 4.0 mph6.4 kmh 29.96 in1014.6 mb 0.00 in0.0 mm 0.00 in/hr0.0 mm/hr 0.00 in0.0 mm
12:15 AM 30.7°F-0.7°C 18.9°F-7.3°C 61% 1.4 mph SSW2.3 kmh SSW 6.3 mph10.1 kmh 29.96 in1014.6 mb 0.00 in0.0 mm 0.00 in/hr0.0 mm/hr 0.00 in0.0 mm
12:00 AM 30.7°F-0.7°C 18.9°F-7.3°C 61% 1.1 mph SSW1.8 kmh SSW 3.6 mph5.8 kmh 29.96 in1014.6 mb 0.00 in0.0 mm 0.00 in/hr0.0 mm/hr 0.00 in0.0 mm